createdAt,value
2019-04-25T00:00:28.336Z,98902.47
2019-04-25T00:02:55.131Z,98895.85
2019-04-25T00:05:21.926Z,98888.81
2019-04-25T00:07:48.704Z,98903.27
2019-04-25T00:10:15.503Z,98895.98
2019-04-25T00:12:43.243Z,98878.67
2019-04-25T00:15:11.183Z,98878.45
2019-04-25T00:17:40.108Z,98875.08
2019-04-25T00:20:08.988Z,98867.73
2019-04-25T00:22:51.532Z,98866.80
2019-04-25T00:25:46.741Z,98883.16
2019-04-25T00:28:14.525Z,98880.45
2019-04-25T00:30:43.301Z,98886.55
2019-04-25T00:33:11.553Z,98889.16
2019-04-25T00:35:38.511Z,98882.81
2019-04-25T00:38:05.347Z,98878.11
2019-04-25T00:40:32.050Z,98881.64
2019-04-25T00:42:58.827Z,98887.80
2019-04-25T00:45:25.613Z,98891.89
2019-04-25T00:47:52.925Z,98890.54
2019-04-25T00:50:19.770Z,98904.11
2019-04-25T00:52:46.455Z,98913.53
2019-04-25T00:55:25.820Z,98913.09
2019-04-25T01:00:25.527Z,98909.73
2019-04-25T01:03:16.842Z,98921.42
2019-04-25T01:05:44.849Z,98306.11
2019-04-25T01:08:12.310Z,98922.15
2019-04-25T01:10:39.011Z,98923.09
2019-04-25T01:13:06.211Z,98890.13
2019-04-25T01:15:33.994Z,98912.42
2019-04-25T01:18:03.465Z,98911.06
2019-04-25T01:20:30.258Z,98911.12
2019-04-25T01:22:57.816Z,98908.62
2019-04-25T01:25:25.378Z,98897.95
2019-04-25T01:27:53.665Z,98887.50
2019-04-25T01:30:23.994Z,98889.69
2019-04-25T01:32:51.046Z,98895.72
2019-04-25T01:35:24.137Z,98904.99
2019-04-25T01:38:08.957Z,98883.40
2019-04-25T01:41:07.103Z,98874.56
2019-04-25T01:43:40.689Z,98883.08
2019-04-25T01:46:09.276Z,98883.04
2019-04-25T01:48:36.054Z,98876.54
2019-04-25T01:51:04.099Z,98880.34
2019-04-25T01:53:30.908Z,98906.09
2019-04-25T01:56:02.711Z,98918.83
2019-04-25T01:58:26.275Z,98924.86
2019-04-25T02:00:55.062Z,98918.72
2019-04-25T02:03:22.121Z,98923.85
2019-04-25T02:05:48.890Z,98906.22
2019-04-25T02:08:15.583Z,98898.23
2019-04-25T02:10:44.281Z,98904.99
2019-04-25T02:13:13.852Z,98923.45
2019-04-25T02:15:40.931Z,98939.44
2019-04-25T02:18:07.717Z,98938.90
2019-04-25T02:20:34.410Z,98935.48
2019-04-25T02:23:02.065Z,98929.28
2019-04-25T02:25:28.874Z,98936.30
2019-04-25T02:27:56.204Z,98947.25
2019-04-25T02:30:25.448Z,98951.34
2019-04-25T02:32:56.042Z,98958.16
2019-04-25T02:35:21.323Z,98970.41
2019-04-25T02:37:48.352Z,98970.55
2019-04-25T02:40:18.365Z,98978.20
2019-04-25T02:42:45.082Z,98983.59
2019-04-25T02:45:37.234Z,98983.64
2019-04-25T02:48:24.119Z,98976.06
2019-04-25T02:51:14.597Z,98971.91
2019-04-25T02:53:44.795Z,98977.26
2019-04-25T02:56:27.604Z,98986.43
2019-04-25T02:58:40.501Z,98982.65
2019-04-25T03:01:17.987Z,98982.84
2019-04-25T03:03:37.563Z,98978.91
2019-04-25T03:06:07.507Z,98980.39
2019-04-25T03:08:35.243Z,98970.72
2019-04-25T03:11:04.694Z,98954.19
2019-04-25T03:13:30.505Z,98961.80
2019-04-25T03:15:58.546Z,98977.27
2019-04-25T03:18:27.464Z,98973.17
2019-04-25T03:21:01.168Z,98983.05
2019-04-25T03:23:38.038Z,98994.05
2019-04-25T03:26:06.143Z,98984.98
2019-04-25T03:28:33.932Z,98976.06
2019-04-25T03:31:02.162Z,98967.88
2019-04-25T03:33:29.454Z,98959.80
2019-04-25T03:35:56.146Z,98968.56
2019-04-25T03:38:24.282Z,98965.83
2019-04-25T03:40:51.028Z,98959.70
2019-04-25T03:43:17.816Z,98959.38
2019-04-25T03:45:45.282Z,98811.92
2019-04-25T03:48:12.095Z,98958.23
2019-04-25T03:50:38.877Z,98968.76
2019-04-25T03:53:06.510Z,98972.45
2019-04-25T03:55:34.056Z,98992.09
2019-04-25T03:58:04.502Z,98988.88
2019-04-25T04:00:30.615Z,98996.80
2019-04-25T04:02:57.200Z,99001.20
2019-04-25T04:05:23.971Z,99010.09
2019-04-25T04:07:50.675Z,99015.73
2019-04-25T04:10:17.449Z,99016.19
2019-04-25T04:12:44.389Z,99019.27
2019-04-25T04:15:11.419Z,99021.59
2019-04-25T04:17:53.601Z,99020.06
2019-04-25T04:20:40.125Z,99018.53
2019-04-25T04:23:17.552Z,99025.61
2019-04-25T04:25:44.412Z,99027.40
2019-04-25T04:28:11.851Z,99034.19
2019-04-25T04:30:38.691Z,99037.50
2019-04-25T04:33:06.869Z,99044.11
2019-04-25T04:35:33.866Z,99050.39
2019-04-25T04:38:00.431Z,99051.52
2019-04-25T04:40:27.069Z,99041.13
2019-04-25T04:42:53.748Z,99049.18
2019-04-25T04:45:20.442Z,99045.91
2019-04-25T04:47:47.214Z,99056.69
2019-04-25T04:50:15.299Z,99057.02
2019-04-25T04:52:43.905Z,99061.60
2019-04-25T04:55:11.597Z,99060.64
2019-04-25T04:57:39.667Z,99068.52
2019-04-25T05:00:07.065Z,99070.65
2019-04-25T05:02:53.359Z,99066.91
2019-04-25T05:05:39.871Z,99064.46
2019-04-25T05:08:10.922Z,99068.48
2019-04-25T05:10:37.728Z,99073.66
2019-04-25T05:13:04.411Z,99080.80
2019-04-25T05:15:31.323Z,99079.93
2019-04-25T05:17:58.087Z,99054.13
2019-04-25T05:20:24.899Z,99080.11
2019-04-25T05:22:54.580Z,99076.97
2019-04-25T05:25:20.670Z,99079.59
2019-04-25T05:27:59.647Z,99074.57
2019-04-25T05:30:21.643Z,99081.51
2019-04-25T05:32:48.319Z,99085.94
2019-04-25T05:35:16.275Z,99087.33
2019-04-25T05:37:43.643Z,99093.77
2019-04-25T05:40:10.685Z,99085.63
2019-04-25T05:42:55.489Z,99086.98
2019-04-25T05:45:24.750Z,99079.28
2019-04-25T05:47:54.017Z,99086.23
2019-04-25T05:50:21.989Z,99078.59
2019-04-25T05:52:49.232Z,99086.66
2019-04-25T05:55:17.604Z,99075.22
2019-04-25T05:57:49.556Z,99086.81
2019-04-25T06:00:15.095Z,99081.23
2019-04-25T06:02:42.012Z,99077.94
2019-04-25T06:05:08.803Z,99081.03
2019-04-25T06:07:35.579Z,99082.25
2019-04-25T06:10:19.496Z,99083.83
2019-04-25T06:12:54.646Z,99081.34
2019-04-25T06:15:25.021Z,99075.73
2019-04-25T06:18:11.071Z,99091.08
2019-04-25T06:20:37.871Z,99088.09
2019-04-25T06:23:25.336Z,99089.48
2019-04-25T06:25:53.780Z,99087.47
2019-04-25T06:28:23.976Z,99090.66
2019-04-25T06:30:51.880Z,99093.77
2019-04-25T06:33:18.678Z,99087.78
2019-04-25T06:35:45.741Z,99103.88
2019-04-25T06:38:13.326Z,99099.94
2019-04-25T06:40:40.151Z,99094.75
2019-04-25T06:43:06.850Z,99093.66
2019-04-25T06:45:51.651Z,99094.04
2019-04-25T06:48:27.099Z,99097.94
2019-04-25T06:50:53.888Z,99092.59
2019-04-25T06:53:20.661Z,99092.67
2019-04-25T06:55:47.463Z,99091.20
2019-04-25T06:58:14.596Z,99095.84
2019-04-25T07:00:55.805Z,99091.95
2019-04-25T07:03:10.037Z,99097.98
2019-04-25T07:05:40.426Z,99103.31
2019-04-25T07:08:06.117Z,99095.89
2019-04-25T07:10:33.896Z,99094.80
2019-04-25T07:13:01.614Z,99105.98
2019-04-25T07:15:28.489Z,99112.33
2019-04-25T07:17:55.219Z,99111.70
2019-04-25T07:20:24.876Z,99102.81
2019-04-25T07:22:51.788Z,99093.55
2019-04-25T07:25:20.592Z,99102.75
2019-04-25T07:28:21.532Z,99107.36
2019-04-25T07:31:10.142Z,99100.65
2019-04-25T07:33:43.310Z,99101.70
2019-04-25T07:36:10.290Z,99093.53
2019-04-25T07:38:37.058Z,99088.61
2019-04-25T07:41:03.904Z,99096.83
2019-04-25T07:43:31.706Z,99110.40
2019-04-25T07:45:59.170Z,99105.17
2019-04-25T07:48:26.825Z,99102.14
2019-04-25T07:50:53.772Z,99101.13
2019-04-25T07:53:20.502Z,99096.20
2019-04-25T07:55:47.211Z,99110.77
2019-04-25T07:58:14.456Z,99101.73
2019-04-25T08:00:41.393Z,99095.11
2019-04-25T08:03:08.061Z,99114.28
2019-04-25T08:05:35.675Z,99117.02
2019-04-25T08:08:03.931Z,99119.36
2019-04-25T08:10:48.275Z,99136.89
2019-04-25T08:13:15.213Z,99138.94
2019-04-25T08:15:53.747Z,99146.80
2019-04-25T08:18:23.399Z,99126.36
2019-04-25T08:20:49.842Z,99136.17
2019-04-25T08:23:16.632Z,99132.11
2019-04-25T08:25:43.425Z,99129.06
2019-04-25T08:28:10.191Z,99120.44
2019-04-25T08:30:38.090Z,99143.12
2019-04-25T08:33:05.070Z,99137.92
2019-04-25T08:35:34.220Z,99132.84
2019-04-25T08:38:01.284Z,99119.05
2019-04-25T08:40:29.544Z,99111.36
2019-04-25T08:42:56.366Z,99123.69
2019-04-25T08:45:24.469Z,99110.89
2019-04-25T08:47:51.331Z,99137.94
2019-04-25T08:50:40.172Z,99128.59
2019-04-25T08:53:06.479Z,99140.84
2019-04-25T08:55:50.865Z,99146.54
2019-04-25T08:58:37.318Z,99134.42
2019-04-25T09:01:11.427Z,99122.03
2019-04-25T09:03:44.507Z,99130.06
2019-04-25T09:06:13.302Z,99132.18
2019-04-25T09:08:41.040Z,99136.20
2019-04-25T09:11:07.942Z,99143.72
2019-04-25T09:13:35.822Z,99145.56
2019-04-25T09:16:03.680Z,99124.53
2019-04-25T09:18:30.348Z,99129.41
2019-04-25T09:20:57.137Z,99136.98
2019-04-25T09:23:23.963Z,99134.98
2019-04-25T09:25:50.757Z,99140.48
2019-04-25T09:28:17.478Z,99130.05
2019-04-25T09:30:44.936Z,99134.34
2019-04-25T09:33:13.270Z,99149.20
2019-04-25T09:35:41.623Z,99159.63
2019-04-25T09:38:08.603Z,99161.23
2019-04-25T09:40:36.119Z,99164.38
2019-04-25T09:43:03.632Z,99157.36
2019-04-25T09:45:39.666Z,99153.48
2019-04-25T09:48:37.995Z,99143.27
2019-04-25T09:51:15.063Z,99152.17
2019-04-25T09:53:45.996Z,99151.83
2019-04-25T09:56:25.633Z,99142.23
2019-04-25T09:58:59.287Z,99142.48
2019-04-25T10:01:26.896Z,99140.29
2019-04-25T10:03:54.365Z,99159.27
2019-04-25T10:06:21.400Z,99141.63
2019-04-25T10:08:48.208Z,99133.23
2019-04-25T10:11:15.221Z,99157.98
2019-04-25T10:13:47.146Z,99162.66
2019-04-25T10:16:13.929Z,99153.56
2019-04-25T10:18:41.359Z,99143.00
2019-04-25T10:21:10.600Z,99151.25
2019-04-25T10:23:38.261Z,99142.48
2019-04-25T10:26:06.839Z,99141.88
2019-04-25T10:28:33.865Z,99134.95
2019-04-25T10:31:00.743Z,99139.72
2019-04-25T10:33:27.555Z,99140.95
2019-04-25T10:36:00.589Z,99124.10
2019-04-25T10:38:25.433Z,99137.31
2019-04-25T10:40:53.584Z,99128.91
2019-04-25T10:43:21.728Z,99105.73
2019-04-25T10:45:49.330Z,99117.13
2019-04-25T10:48:16.138Z,99126.54
2019-04-25T10:50:45.173Z,99123.16
2019-04-25T10:53:11.634Z,99128.66
2019-04-25T10:55:57.944Z,99117.34
2019-04-25T10:58:24.755Z,99127.84
2019-04-25T11:00:52.936Z,99124.05
2019-04-25T11:03:33.909Z,99116.34
2019-04-25T11:06:00.812Z,99110.30
2019-04-25T11:08:27.646Z,99117.09
2019-04-25T11:10:55.845Z,99116.04
2019-04-25T11:13:22.639Z,99111.86
2019-04-25T11:15:49.838Z,99105.98
2019-04-25T11:18:17.077Z,99108.47
2019-04-25T11:20:44.681Z,99117.63
2019-04-25T11:23:11.569Z,99106.11
2019-04-25T11:25:38.467Z,99102.63
2019-04-25T11:28:07.971Z,99094.54
2019-04-25T11:30:37.906Z,99109.72
2019-04-25T11:33:05.131Z,99092.00
2019-04-25T11:35:31.992Z,99090.05
2019-04-25T11:38:03.415Z,99091.39
2019-04-25T11:40:56.001Z,99082.20
2019-04-25T11:43:22.922Z,99090.36
2019-04-25T11:45:49.727Z,99084.71
2019-04-25T11:48:16.658Z,99078.94
2019-04-25T11:50:48.163Z,99085.98
2019-04-25T11:53:12.290Z,99094.23
2019-04-25T11:55:39.081Z,99093.59
2019-04-25T11:58:05.790Z,99086.80
2019-04-25T12:00:33.867Z,99083.52
2019-04-25T12:03:00.777Z,99093.74
2019-04-25T12:05:27.956Z,99071.00
2019-04-25T12:07:54.767Z,99086.45
2019-04-25T12:10:24.233Z,99073.17
2019-04-25T12:12:51.192Z,99075.86
2019-04-25T12:15:21.886Z,99074.94
2019-04-25T12:17:49.492Z,99072.47
2019-04-25T12:20:16.376Z,99068.09
2019-04-25T12:22:44.514Z,99057.87
2019-04-25T12:25:13.426Z,99056.62
2019-04-25T12:27:40.974Z,99050.22
2019-04-25T12:30:08.088Z,99048.34
2019-04-25T12:32:35.256Z,99038.26
2019-04-25T12:35:04.090Z,99036.51
2019-04-25T12:37:31.024Z,99033.66
2019-04-25T12:39:57.825Z,99035.43
2019-04-25T12:42:24.501Z,99019.88
2019-04-25T12:45:06.851Z,99027.76
2019-04-25T12:47:35.208Z,99026.41
2019-04-25T12:50:02.126Z,99029.02
2019-04-25T12:52:28.921Z,99029.89
2019-04-25T12:54:58.070Z,99026.27
2019-04-25T12:57:25.079Z,99031.18
2019-04-25T12:59:51.784Z,99033.51
2019-04-25T13:02:18.468Z,99034.27
2019-04-25T13:04:45.283Z,99028.41
2019-04-25T13:07:13.322Z,99017.55
2019-04-25T13:09:40.688Z,99025.28
2019-04-25T13:12:08.458Z,99020.88
2019-04-25T13:14:35.407Z,99015.11
2019-04-25T13:17:03.808Z,99018.34
2019-04-25T13:19:30.801Z,99017.14
2019-04-25T13:21:57.963Z,99027.17
2019-04-25T13:24:24.920Z,99026.11
2019-04-25T13:27:10.000Z,99028.35
2019-04-25T13:29:57.424Z,99026.06
2019-04-25T13:32:56.519Z,99013.26
2019-04-25T13:35:28.004Z,99011.08
2019-04-25T13:37:54.739Z,98997.58
2019-04-25T13:40:21.677Z,98995.00
2019-04-25T13:42:48.554Z,98988.19
2019-04-25T13:45:15.376Z,98984.23
2019-04-25T13:47:42.182Z,98986.56
2019-04-25T13:50:09.072Z,98985.05
2019-04-25T13:52:37.119Z,98981.34
2019-04-25T13:55:05.223Z,98978.75
2019-04-25T13:57:32.397Z,98964.75
2019-04-25T13:59:59.249Z,98966.45
2019-04-25T14:02:26.768Z,98959.06
2019-04-25T14:04:53.793Z,98956.66
2019-04-25T14:07:20.679Z,98955.89
2019-04-25T14:09:48.694Z,98948.08
2019-04-25T14:12:16.125Z,98944.58
2019-04-25T14:14:44.114Z,98941.63
2019-04-25T14:17:33.882Z,98939.56
2019-04-25T14:20:25.232Z,98939.97
2019-04-25T14:22:53.671Z,98927.20
2019-04-25T14:25:21.141Z,98926.19
2019-04-25T14:27:47.825Z,98927.76
2019-04-25T14:30:16.578Z,98911.09
2019-04-25T14:33:04.685Z,98917.03
2019-04-25T14:35:31.728Z,98909.70
2019-04-25T14:37:58.437Z,98909.50
2019-04-25T14:40:26.885Z,98913.58
2019-04-25T14:42:53.749Z,98913.07
2019-04-25T14:45:21.590Z,98911.41
2019-04-25T14:47:49.234Z,98911.07
2019-04-25T14:50:16.249Z,98902.50
2019-04-25T14:52:43.044Z,98898.23
2019-04-25T14:55:29.601Z,98900.69
2019-04-25T14:58:01.235Z,98901.48
2019-04-25T15:00:35.986Z,98895.53
2019-04-25T15:03:03.482Z,98895.39
2019-04-25T15:05:30.992Z,98898.05
2019-04-25T15:07:57.866Z,98893.98
2019-04-25T15:10:24.684Z,98888.33
2019-04-25T15:12:51.471Z,98886.29
2019-04-25T15:15:18.311Z,98888.66
2019-04-25T15:17:46.757Z,98887.31
2019-04-25T15:20:13.798Z,98880.13
2019-04-25T15:22:40.621Z,98880.64
2019-04-25T15:25:07.445Z,98862.92
2019-04-25T15:27:34.170Z,98861.82
2019-04-25T15:30:01.389Z,98868.33
2019-04-25T15:32:32.558Z,98862.17
2019-04-25T15:34:59.383Z,98873.70
2019-04-25T15:37:54.909Z,98871.02
2019-04-25T15:40:29.922Z,98866.15
2019-04-25T15:43:13.057Z,98866.73
2019-04-25T15:45:45.232Z,98864.59
2019-04-25T15:48:12.214Z,98871.95
2019-04-25T15:50:39.099Z,98869.55
2019-04-25T15:53:05.918Z,98868.13
2019-04-25T15:55:32.822Z,98863.94
2019-04-25T15:57:59.665Z,98861.63
2019-04-25T16:00:33.285Z,98849.20
2019-04-25T16:03:00.052Z,98848.91
2019-04-25T16:05:27.669Z,98845.72
2019-04-25T16:07:54.439Z,98839.67
2019-04-25T16:10:21.260Z,98826.25
2019-04-25T16:12:47.969Z,98825.22
2019-04-25T16:15:14.647Z,98833.88
2019-04-25T16:17:41.461Z,98829.07
2019-04-25T16:20:08.397Z,98830.13
2019-04-25T16:22:35.062Z,98826.13
2019-04-25T16:25:01.897Z,98832.38
2019-04-25T16:27:28.984Z,98834.05
2019-04-25T16:29:55.887Z,98826.94
2019-04-25T16:32:23.795Z,98820.48
2019-04-25T16:34:50.590Z,98828.06
2019-04-25T16:37:17.328Z,98820.48
2019-04-25T16:39:44.221Z,98820.16
2019-04-25T16:42:11.041Z,98820.57
2019-04-25T16:44:37.822Z,98817.93
2019-04-25T16:47:04.631Z,98816.31
2019-04-25T16:49:32.504Z,98817.04
2019-04-25T16:51:59.416Z,98812.11
2019-04-25T16:54:26.301Z,98815.95
2019-04-25T16:56:52.992Z,98816.97
2019-04-25T17:01:45.046Z,98818.77
2019-04-25T17:06:39.838Z,98815.89
2019-04-25T17:09:06.637Z,98806.44
2019-04-25T17:11:33.891Z,98798.02
2019-04-25T17:14:26.243Z,98799.88
2019-04-25T17:17:06.353Z,98801.41
2019-04-25T17:19:47.425Z,98794.39
2019-04-25T17:22:14.220Z,98792.05
2019-04-25T17:24:41.262Z,98787.13
2019-04-25T17:27:09.917Z,98782.06
2019-04-25T17:29:36.512Z,98788.20
2019-04-25T17:32:14.880Z,98786.58
2019-04-25T17:35:03.959Z,98779.25
2019-04-25T17:37:36.271Z,98786.09
2019-04-25T17:40:10.546Z,98781.13
2019-04-25T17:42:37.441Z,98784.63
2019-04-25T17:45:06.940Z,98781.36
2019-04-25T17:47:34.575Z,98774.67
2019-04-25T17:50:01.309Z,98776.27
2019-04-25T17:52:28.117Z,98778.16
2019-04-25T17:54:54.795Z,98776.20
2019-04-25T17:57:21.504Z,98769.15
2019-04-25T17:59:48.444Z,98771.83
2019-04-25T18:02:15.215Z,98766.62
2019-04-25T18:04:42.508Z,98764.56
2019-04-25T18:07:09.577Z,98763.95
2019-04-25T18:09:36.827Z,98754.73
2019-04-25T18:12:03.654Z,98759.33
2019-04-25T18:14:30.449Z,98755.47
2019-04-25T18:16:57.128Z,98754.59
2019-04-25T18:19:31.839Z,98745.47
2019-04-25T18:22:04.577Z,98746.06
2019-04-25T18:24:57.749Z,98743.56
2019-04-25T18:27:30.267Z,98754.50
2019-04-25T18:29:56.958Z,98745.95
2019-04-25T18:32:25.576Z,98754.83
2019-04-25T18:35:14.832Z,98751.20
2019-04-25T18:37:52.631Z,98755.45
2019-04-25T18:40:28.805Z,98763.14
2019-04-25T18:43:11.333Z,98764.41
2019-04-25T18:45:40.271Z,98764.85
2019-04-25T18:48:07.180Z,98772.30
2019-04-25T18:50:34.078Z,98774.27
2019-04-25T18:53:35.565Z,98769.75
2019-04-25T18:56:28.651Z,98778.36
2019-04-25T18:59:13.518Z,98781.28
2019-04-25T19:02:04.952Z,98775.20
2019-04-25T19:05:00.242Z,98776.27
2019-04-25T19:07:27.123Z,98771.39
2019-04-25T19:09:53.943Z,98778.62
2019-04-25T19:12:20.828Z,98785.29
2019-04-25T19:14:47.632Z,98780.03
2019-04-25T19:17:14.603Z,98790.02
2019-04-25T19:19:41.588Z,98783.59
2019-04-25T19:22:08.279Z,98787.02
2019-04-25T19:24:35.074Z,98793.93
2019-04-25T19:27:01.855Z,98792.91
2019-04-25T19:29:28.672Z,98787.84
2019-04-25T19:31:55.452Z,98779.47
2019-04-25T19:34:22.021Z,98776.44
2019-04-25T19:36:49.107Z,98782.59
2019-04-25T19:39:17.567Z,98780.57
2019-04-25T19:41:49.686Z,98777.63
2019-04-25T19:44:22.449Z,98780.77
2019-04-25T19:46:51.263Z,98771.98
2019-04-25T19:49:18.116Z,98763.68
2019-04-25T19:51:45.152Z,98770.77
2019-04-25T19:54:12.071Z,98777.12
2019-04-25T19:56:38.968Z,98782.02
2019-04-25T19:59:05.761Z,98786.66
2019-04-25T20:01:32.530Z,98788.57
2019-04-25T20:04:11.999Z,98784.44
2019-04-25T20:06:57.044Z,98786.77
2019-04-25T20:10:01.551Z,98789.48
2019-04-25T20:12:31.793Z,98791.50
2019-04-25T20:14:58.389Z,98791.58
2019-04-25T20:17:25.065Z,98791.49
2019-04-25T20:19:51.890Z,98788.06
2019-04-25T20:22:18.717Z,98782.40
2019-04-25T20:24:46.314Z,98781.19
2019-04-25T20:27:12.995Z,98784.94
2019-04-25T20:29:39.976Z,98774.03
2019-04-25T20:32:07.226Z,98774.94
2019-04-25T20:34:34.046Z,98776.83
2019-04-25T20:37:00.841Z,98765.97
2019-04-25T20:39:27.921Z,98772.28
2019-04-25T20:41:54.646Z,98769.91
2019-04-25T20:44:21.457Z,98769.31
2019-04-25T20:46:48.515Z,98764.98
2019-04-25T20:49:15.545Z,98760.42
2019-04-25T20:51:42.248Z,98755.37
2019-04-25T20:54:08.967Z,98753.73
2019-04-25T20:56:35.730Z,98754.89
2019-04-25T20:59:02.649Z,98748.00
2019-04-25T21:01:29.316Z,98746.58
2019-04-25T21:03:56.222Z,98750.14
2019-04-25T21:06:28.058Z,98750.19
2019-04-25T21:08:55.473Z,98754.34
2019-04-25T21:11:22.209Z,98768.84
2019-04-25T21:14:07.013Z,98817.96
2019-04-25T21:16:53.867Z,98858.08
2019-04-25T21:19:26.738Z,98857.11
2019-04-25T21:21:54.226Z,98851.69
2019-04-25T21:24:21.133Z,98867.36
2019-04-25T21:26:47.715Z,98873.66
2019-04-25T21:29:14.623Z,98880.72
2019-04-25T21:31:41.207Z,98890.86
2019-04-25T21:34:08.058Z,98910.94
2019-04-25T21:36:35.103Z,98925.55
2019-04-25T21:39:02.112Z,98914.38
2019-04-25T21:41:41.294Z,98940.41
2019-04-25T21:44:08.366Z,98932.80
2019-04-25T21:46:35.152Z,98955.52
2019-04-25T21:49:03.079Z,98959.02
2019-04-25T21:51:32.964Z,98972.33
2019-04-25T21:54:01.348Z,98964.89
2019-04-25T21:56:28.379Z,98982.20
2019-04-25T21:58:55.625Z,98969.74
2019-04-25T22:01:26.806Z,98991.02
2019-04-25T22:03:54.328Z,98985.98
2019-04-25T22:06:22.169Z,98985.14
2019-04-25T22:08:49.198Z,98994.63
2019-04-25T22:11:15.988Z,98994.81
2019-04-25T22:13:43.188Z,98990.84
2019-04-25T22:16:10.369Z,98998.94
2019-04-25T22:18:37.532Z,98988.63
2019-04-25T22:21:04.630Z,99000.82
2019-04-25T22:23:31.718Z,99001.85
2019-04-25T22:25:59.087Z,99004.03
2019-04-25T22:28:26.274Z,99005.55
2019-04-25T22:30:57.697Z,99012.93
2019-04-25T22:33:46.902Z,99014.58
2019-04-25T22:36:17.686Z,99022.98
2019-04-25T22:39:11.090Z,99021.95
2019-04-25T22:41:40.441Z,99026.72
2019-04-25T22:44:09.293Z,99027.59
2019-04-25T22:46:36.375Z,99025.30
2019-04-25T22:49:03.889Z,99029.23
2019-04-25T22:51:38.313Z,99026.61
2019-04-25T22:54:05.587Z,99023.18
2019-04-25T22:56:34.502Z,99026.26
2019-04-25T22:59:02.866Z,99020.73
2019-04-25T23:01:49.814Z,98989.98
2019-04-25T23:04:24.481Z,99009.63
2019-04-25T23:06:51.343Z,99013.02
2019-04-25T23:09:18.113Z,99021.76
2019-04-25T23:11:45.016Z,99020.83
2019-04-25T23:14:12.881Z,99011.02
2019-04-25T23:16:40.967Z,99014.56
2019-04-25T23:19:07.641Z,99012.41
2019-04-25T23:21:34.637Z,98994.55
2019-04-25T23:24:01.783Z,99018.22
2019-04-25T23:26:48.115Z,99017.03
2019-04-25T23:29:15.791Z,99003.20
2019-04-25T23:31:42.583Z,99011.52
2019-04-25T23:34:10.801Z,99013.67
2019-04-25T23:36:37.649Z,99007.80
2019-04-25T23:39:07.276Z,99004.55
2019-04-25T23:41:34.308Z,98997.71
2019-04-25T23:44:01.076Z,98987.64
2019-04-25T23:46:30.740Z,98978.34
2019-04-25T23:48:57.491Z,98979.71
2019-04-25T23:51:24.175Z,98966.08
2019-04-25T23:53:51.264Z,98974.66
2019-04-25T23:56:18.038Z,98984.45
2019-04-25T23:58:44.939Z,98987.11
